sensor_id;sensor_type;location;lat;lon;timestamp;P1;durP1;ratioP1;P2;durP2;ratioP2
20914;SDS011;10617;52.032;5.298;2024-01-30T00:09:07;10.38;;;6.40;;
20914;SDS011;10617;52.032;5.298;2024-01-30T00:13:10;9.93;;;5.35;;
20914;SDS011;10617;52.032;5.298;2024-01-30T00:17:12;12.75;;;6.45;;
20914;SDS011;10617;52.032;5.298;2024-01-30T00:21:13;11.15;;;6.88;;
20914;SDS011;10617;52.032;5.298;2024-01-30T00:25:15;12.70;;;7.22;;
20914;SDS011;10617;52.032;5.298;2024-01-30T00:29:17;11.05;;;6.82;;
20914;SDS011;10617;52.032;5.298;2024-01-30T00:33:39;10.27;;;6.38;;
20914;SDS011;10617;52.032;5.298;2024-01-30T00:37:41;12.65;;;6.93;;
20914;SDS011;10617;52.032;5.298;2024-01-30T00:41:43;10.65;;;6.72;;
20914;SDS011;10617;52.032;5.298;2024-01-30T00:45:45;10.43;;;6.53;;
20914;SDS011;10617;52.032;5.298;2024-01-30T00:49:47;11.45;;;6.65;;
20914;SDS011;10617;52.032;5.298;2024-01-30T00:53:49;11.27;;;6.60;;
20914;SDS011;10617;52.032;5.298;2024-01-30T00:57:51;11.10;;;6.82;;
20914;SDS011;10617;52.032;5.298;2024-01-30T01:01:53;9.90;;;5.10;;
20914;SDS011;10617;52.032;5.298;2024-01-30T01:05:55;11.75;;;6.85;;
20914;SDS011;10617;52.032;5.298;2024-01-30T01:09:56;12.10;;;6.75;;
20914;SDS011;10617;52.032;5.298;2024-01-30T01:13:58;10.68;;;6.22;;
20914;SDS011;10617;52.032;5.298;2024-01-30T01:23:23;10.30;;;5.55;;
20914;SDS011;10617;52.032;5.298;2024-01-30T01:27:25;11.60;;;5.93;;
20914;SDS011;10617;52.032;5.298;2024-01-30T01:31:26;9.13;;;5.97;;
20914;SDS011;10617;52.032;5.298;2024-01-30T01:35:31;10.85;;;6.60;;
20914;SDS011;10617;52.032;5.298;2024-01-30T01:39:33;10.15;;;6.30;;
20914;SDS011;10617;52.032;5.298;2024-01-30T01:43:34;9.23;;;4.97;;
20914;SDS011;10617;52.032;5.298;2024-01-30T01:47:36;11.15;;;6.40;;
20914;SDS011;10617;52.032;5.298;2024-01-30T01:51:38;10.00;;;5.80;;
20914;SDS011;10617;52.032;5.298;2024-01-30T01:55:42;11.75;;;6.20;;
20914;SDS011;10617;52.032;5.298;2024-01-30T01:59:44;10.73;;;5.82;;
20914;SDS011;10617;52.032;5.298;2024-01-30T02:03:46;10.70;;;6.20;;
20914;SDS011;10617;52.032;5.298;2024-01-30T02:07:48;8.90;;;5.53;;
20914;SDS011;10617;52.032;5.298;2024-01-30T02:16:16;9.60;;;6.20;;
20914;SDS011;10617;52.032;5.298;2024-01-30T02:20:21;9.73;;;5.97;;
20914;SDS011;10617;52.032;5.298;2024-01-30T02:24:26;12.43;;;6.15;;
20914;SDS011;10617;52.032;5.298;2024-01-30T02:28:27;10.93;;;5.85;;
20914;SDS011;10617;52.032;5.298;2024-01-30T02:32:29;12.65;;;6.18;;
20914;SDS011;10617;52.032;5.298;2024-01-30T02:36:31;9.90;;;5.82;;
20914;SDS011;10617;52.032;5.298;2024-01-30T02:40:33;11.82;;;5.82;;
20914;SDS011;10617;52.032;5.298;2024-01-30T02:49:57;12.85;;;6.78;;
20914;SDS011;10617;52.032;5.298;2024-01-30T02:54:01;11.27;;;6.03;;
20914;SDS011;10617;52.032;5.298;2024-01-30T02:58:03;11.88;;;6.80;;
20914;SDS011;10617;52.032;5.298;2024-01-30T03:02:05;12.50;;;6.70;;
20914;SDS011;10617;52.032;5.298;2024-01-30T03:06:07;12.00;;;7.32;;
20914;SDS011;10617;52.032;5.298;2024-01-30T03:10:09;11.02;;;6.28;;
20914;SDS011;10617;52.032;5.298;2024-01-30T03:14:11;10.82;;;6.70;;
20914;SDS011;10617;52.032;5.298;2024-01-30T03:18:13;11.75;;;7.18;;
20914;SDS011;10617;52.032;5.298;2024-01-30T03:22:14;14.57;;;7.97;;
20914;SDS011;10617;52.032;5.298;2024-01-30T03:26:16;13.02;;;7.20;;
20914;SDS011;10617;52.032;5.298;2024-01-30T03:30:18;13.18;;;7.20;;
20914;SDS011;10617;52.032;5.298;2024-01-30T03:34:20;12.80;;;6.97;;
20914;SDS011;10617;52.032;5.298;2024-01-30T03:38:22;11.02;;;6.22;;
20914;SDS011;10617;52.032;5.298;2024-01-30T03:42:24;11.27;;;6.03;;
20914;SDS011;10617;52.032;5.298;2024-01-30T03:46:25;11.55;;;6.47;;
20914;SDS011;10617;52.032;5.298;2024-01-30T03:50:27;11.55;;;5.47;;
20914;SDS011;10617;52.032;5.298;2024-01-30T03:54:29;9.15;;;5.60;;
20914;SDS011;10617;52.032;5.298;2024-01-30T03:58:31;9.63;;;5.53;;
20914;SDS011;10617;52.032;5.298;2024-01-30T04:02:33;8.50;;;5.50;;
20914;SDS011;10617;52.032;5.298;2024-01-30T04:06:35;10.52;;;6.28;;
20914;SDS011;10617;52.032;5.298;2024-01-30T04:10:36;11.57;;;6.18;;
20914;SDS011;10617;52.032;5.298;2024-01-30T04:24:54;13.13;;;5.82;;
20914;SDS011;10617;52.032;5.298;2024-01-30T04:28:56;8.68;;;5.20;;
20914;SDS011;10617;52.032;5.298;2024-01-30T04:32:57;10.40;;;6.22;;
20914;SDS011;10617;52.032;5.298;2024-01-30T04:41:54;9.85;;;5.47;;
20914;SDS011;10617;52.032;5.298;2024-01-30T04:45:56;9.90;;;5.70;;
20914;SDS011;10617;52.032;5.298;2024-01-30T04:49:58;11.73;;;6.00;;
20914;SDS011;10617;52.032;5.298;2024-01-30T04:54:00;12.85;;;6.25;;
20914;SDS011;10617;52.032;5.298;2024-01-30T04:58:02;10.35;;;6.45;;
20914;SDS011;10617;52.032;5.298;2024-01-30T05:02:04;8.00;;;5.10;;
20914;SDS011;10617;52.032;5.298;2024-01-30T05:06:06;9.38;;;5.28;;
20914;SDS011;10617;52.032;5.298;2024-01-30T05:10:08;7.95;;;4.97;;
20914;SDS011;10617;52.032;5.298;2024-01-30T05:14:11;9.80;;;5.55;;
20914;SDS011;10617;52.032;5.298;2024-01-30T05:18:13;10.88;;;5.82;;
20914;SDS011;10617;52.032;5.298;2024-01-30T05:22:15;12.20;;;5.40;;
20914;SDS011;10617;52.032;5.298;2024-01-30T05:26:19;8.57;;;5.32;;
20914;SDS011;10617;52.032;5.298;2024-01-30T05:30:21;9.10;;;5.32;;
20914;SDS011;10617;52.032;5.298;2024-01-30T05:34:26;7.03;;;4.28;;
20914;SDS011;10617;52.032;5.298;2024-01-30T05:38:28;8.73;;;5.03;;
20914;SDS011;10617;52.032;5.298;2024-01-30T05:42:30;8.00;;;4.32;;
20914;SDS011;10617;52.032;5.298;2024-01-30T05:46:33;10.32;;;5.20;;
20914;SDS011;10617;52.032;5.298;2024-01-30T05:50:35;8.60;;;4.97;;
20914;SDS011;10617;52.032;5.298;2024-01-30T05:54:36;9.15;;;5.05;;
20914;SDS011;10617;52.032;5.298;2024-01-30T05:58:38;9.18;;;4.78;;
20914;SDS011;10617;52.032;5.298;2024-01-30T06:02:40;9.52;;;5.00;;
20914;SDS011;10617;52.032;5.298;2024-01-30T06:06:42;9.93;;;5.15;;
20914;SDS011;10617;52.032;5.298;2024-01-30T06:15:36;8.23;;;5.20;;
20914;SDS011;10617;52.032;5.298;2024-01-30T06:19:38;10.05;;;4.93;;
20914;SDS011;10617;52.032;5.298;2024-01-30T06:23:40;9.32;;;5.57;;
20914;SDS011;10617;52.032;5.298;2024-01-30T06:27:42;8.20;;;4.72;;
20914;SDS011;10617;52.032;5.298;2024-01-30T06:31:44;9.93;;;4.47;;
20914;SDS011;10617;52.032;5.298;2024-01-30T06:35:46;9.00;;;4.63;;
20914;SDS011;10617;52.032;5.298;2024-01-30T06:39:48;7.93;;;4.88;;
20914;SDS011;10617;52.032;5.298;2024-01-30T06:43:50;10.05;;;5.18;;
20914;SDS011;10617;52.032;5.298;2024-01-30T06:47:52;7.95;;;4.88;;
20914;SDS011;10617;52.032;5.298;2024-01-30T06:51:54;7.40;;;4.45;;
20914;SDS011;10617;52.032;5.298;2024-01-30T06:55:55;10.15;;;4.22;;
20914;SDS011;10617;52.032;5.298;2024-01-30T06:59:57;7.97;;;4.53;;
20914;SDS011;10617;52.032;5.298;2024-01-30T07:03:59;8.48;;;4.80;;
20914;SDS011;10617;52.032;5.298;2024-01-30T07:08:01;8.32;;;4.47;;
20914;SDS011;10617;52.032;5.298;2024-01-30T07:12:03;9.80;;;4.95;;
20914;SDS011;10617;52.032;5.298;2024-01-30T07:21:21;7.45;;;3.67;;
20914;SDS011;10617;52.032;5.298;2024-01-30T07:25:29;7.38;;;3.65;;
20914;SDS011;10617;52.032;5.298;2024-01-30T07:29:31;10.57;;;5.65;;
20914;SDS011;10617;52.032;5.298;2024-01-30T07:33:33;8.10;;;4.32;;
20914;SDS011;10617;52.032;5.298;2024-01-30T07:37:35;8.93;;;4.78;;
20914;SDS011;10617;52.032;5.298;2024-01-30T07:41:37;9.10;;;4.75;;
20914;SDS011;10617;52.032;5.298;2024-01-30T07:45:42;8.50;;;4.57;;
20914;SDS011;10617;52.032;5.298;2024-01-30T07:49:44;9.13;;;5.28;;
20914;SDS011;10617;52.032;5.298;2024-01-30T07:53:52;9.10;;;4.82;;
20914;SDS011;10617;52.032;5.298;2024-01-30T08:02:12;7.50;;;4.65;;
20914;SDS011;10617;52.032;5.298;2024-01-30T08:06:14;8.07;;;4.70;;
20914;SDS011;10617;52.032;5.298;2024-01-30T08:10:16;11.95;;;5.30;;
20914;SDS011;10617;52.032;5.298;2024-01-30T08:14:21;10.88;;;6.05;;
20914;SDS011;10617;52.032;5.298;2024-01-30T08:18:23;11.55;;;6.03;;
20914;SDS011;10617;52.032;5.298;2024-01-30T08:22:25;12.00;;;5.60;;
20914;SDS011;10617;52.032;5.298;2024-01-30T08:26:27;9.63;;;5.78;;
20914;SDS011;10617;52.032;5.298;2024-01-30T08:30:29;8.98;;;5.15;;
20914;SDS011;10617;52.032;5.298;2024-01-30T08:34:31;9.30;;;5.32;;
20914;SDS011;10617;52.032;5.298;2024-01-30T08:38:33;10.88;;;5.53;;
20914;SDS011;10617;52.032;5.298;2024-01-30T08:42:35;10.90;;;5.82;;
20914;SDS011;10617;52.032;5.298;2024-01-30T08:46:37;11.38;;;6.38;;
20914;SDS011;10617;52.032;5.298;2024-01-30T08:50:38;12.75;;;6.35;;
20914;SDS011;10617;52.032;5.298;2024-01-30T08:54:40;12.43;;;6.25;;
20914;SDS011;10617;52.032;5.298;2024-01-30T08:58:42;11.38;;;6.05;;
20914;SDS011;10617;52.032;5.298;2024-01-30T09:02:44;9.18;;;5.57;;
20914;SDS011;10617;52.032;5.298;2024-01-30T09:06:47;13.52;;;6.18;;
20914;SDS011;10617;52.032;5.298;2024-01-30T09:10:57;12.23;;;6.85;;
20914;SDS011;10617;52.032;5.298;2024-01-30T09:23:28;10.63;;;6.38;;
20914;SDS011;10617;52.032;5.298;2024-01-30T09:27:30;11.55;;;6.20;;
20914;SDS011;10617;52.032;5.298;2024-01-30T09:31:32;12.55;;;6.93;;
20914;SDS011;10617;52.032;5.298;2024-01-30T09:35:34;12.30;;;6.70;;
20914;SDS011;10617;52.032;5.298;2024-01-30T09:39:37;12.63;;;7.22;;
20914;SDS011;10617;52.032;5.298;2024-01-30T09:43:39;10.35;;;6.30;;
20914;SDS011;10617;52.032;5.298;2024-01-30T09:47:44;11.15;;;6.88;;
20914;SDS011;10617;52.032;5.298;2024-01-30T09:51:47;13.05;;;7.00;;
20914;SDS011;10617;52.032;5.298;2024-01-30T09:55:51;12.63;;;6.88;;
20914;SDS011;10617;52.032;5.298;2024-01-30T09:59:53;13.30;;;6.53;;
20914;SDS011;10617;52.032;5.298;2024-01-30T10:03:58;10.85;;;6.53;;
20914;SDS011;10617;52.032;5.298;2024-01-30T10:08:00;11.35;;;6.15;;
20914;SDS011;10617;52.032;5.298;2024-01-30T10:12:02;12.18;;;6.25;;
20914;SDS011;10617;52.032;5.298;2024-01-30T10:16:05;10.30;;;6.63;;
20914;SDS011;10617;52.032;5.298;2024-01-30T10:20:08;13.10;;;7.40;;
20914;SDS011;10617;52.032;5.298;2024-01-30T10:24:10;11.30;;;6.57;;
20914;SDS011;10617;52.032;5.298;2024-01-30T10:28:14;11.32;;;6.68;;
20914;SDS011;10617;52.032;5.298;2024-01-30T10:32:17;11.35;;;6.10;;
20914;SDS011;10617;52.032;5.298;2024-01-30T10:36:19;12.38;;;6.20;;
20914;SDS011;10617;52.032;5.298;2024-01-30T10:40:28;10.85;;;6.22;;
20914;SDS011;10617;52.032;5.298;2024-01-30T10:44:36;11.43;;;6.20;;
20914;SDS011;10617;52.032;5.298;2024-01-30T10:48:46;10.57;;;6.30;;
20914;SDS011;10617;52.032;5.298;2024-01-30T10:52:57;12.10;;;6.00;;
20914;SDS011;10617;52.032;5.298;2024-01-30T10:57:00;12.80;;;5.97;;
20914;SDS011;10617;52.032;5.298;2024-01-30T11:01:05;10.40;;;6.40;;
20914;SDS011;10617;52.032;5.298;2024-01-30T11:05:08;9.85;;;6.10;;
20914;SDS011;10617;52.032;5.298;2024-01-30T11:09:11;12.02;;;6.22;;
20914;SDS011;10617;52.032;5.298;2024-01-30T11:13:14;13.23;;;7.10;;
20914;SDS011;10617;52.032;5.298;2024-01-30T11:17:16;10.73;;;5.45;;
20914;SDS011;10617;52.032;5.298;2024-01-30T11:21:18;10.68;;;4.25;;
20914;SDS011;10617;52.032;5.298;2024-01-30T11:25:21;9.80;;;4.22;;
20914;SDS011;10617;52.032;5.298;2024-01-30T11:29:24;7.25;;;3.40;;
20914;SDS011;10617;52.032;5.298;2024-01-30T11:33:30;8.77;;;3.70;;
20914;SDS011;10617;52.032;5.298;2024-01-30T11:37:35;6.80;;;3.17;;
20914;SDS011;10617;52.032;5.298;2024-01-30T11:41:39;6.43;;;2.75;;
20914;SDS011;10617;52.032;5.298;2024-01-30T11:45:42;7.75;;;2.60;;
20914;SDS011;10617;52.032;5.298;2024-01-30T11:49:46;7.35;;;2.60;;
20914;SDS011;10617;52.032;5.298;2024-01-30T11:53:51;7.38;;;2.10;;
20914;SDS011;10617;52.032;5.298;2024-01-30T11:57:56;5.95;;;2.03;;
20914;SDS011;10617;52.032;5.298;2024-01-30T12:07:15;4.38;;;1.70;;
20914;SDS011;10617;52.032;5.298;2024-01-30T12:11:17;6.47;;;2.10;;
20914;SDS011;10617;52.032;5.298;2024-01-30T12:15:21;5.55;;;2.25;;
20914;SDS011;10617;52.032;5.298;2024-01-30T12:19:23;6.80;;;2.83;;
20914;SDS011;10617;52.032;5.298;2024-01-30T12:23:26;7.20;;;3.15;;
20914;SDS011;10617;52.032;5.298;2024-01-30T12:27:29;6.07;;;3.03;;
20914;SDS011;10617;52.032;5.298;2024-01-30T12:42:15;6.22;;;2.03;;
20914;SDS011;10617;52.032;5.298;2024-01-30T12:46:17;5.18;;;1.70;;
20914;SDS011;10617;52.032;5.298;2024-01-30T12:50:19;4.90;;;1.80;;
20914;SDS011;10617;52.032;5.298;2024-01-30T12:54:22;4.68;;;2.03;;
20914;SDS011;10617;52.032;5.298;2024-01-30T12:58:24;4.78;;;1.67;;
20914;SDS011;10617;52.032;5.298;2024-01-30T13:02:26;6.63;;;1.80;;
20914;SDS011;10617;52.032;5.298;2024-01-30T13:06:35;5.20;;;1.73;;
20914;SDS011;10617;52.032;5.298;2024-01-30T13:10:38;9.57;;;2.38;;
20914;SDS011;10617;52.032;5.298;2024-01-30T13:14:39;4.80;;;2.08;;
20914;SDS011;10617;52.032;5.298;2024-01-30T13:18:41;8.70;;;2.60;;
20914;SDS011;10617;52.032;5.298;2024-01-30T13:22:44;5.53;;;2.50;;
20914;SDS011;10617;52.032;5.298;2024-01-30T13:26:49;4.82;;;2.25;;
20914;SDS011;10617;52.032;5.298;2024-01-30T13:30:51;4.93;;;1.77;;
20914;SDS011;10617;52.032;5.298;2024-01-30T13:34:53;4.00;;;1.38;;
20914;SDS011;10617;52.032;5.298;2024-01-30T13:38:55;3.67;;;1.23;;
20914;SDS011;10617;52.032;5.298;2024-01-30T13:42:57;3.17;;;0.80;;
20914;SDS011;10617;52.032;5.298;2024-01-30T13:46:59;1.50;;;0.70;;
20914;SDS011;10617;52.032;5.298;2024-01-30T13:51:01;5.55;;;1.20;;
20914;SDS011;10617;52.032;5.298;2024-01-30T13:55:03;1.67;;;0.70;;
20914;SDS011;10617;52.032;5.298;2024-01-30T13:59:05;3.55;;;0.80;;
20914;SDS011;10617;52.032;5.298;2024-01-30T14:03:07;4.20;;;1.30;;
20914;SDS011;10617;52.032;5.298;2024-01-30T14:07:09;3.28;;;1.20;;
20914;SDS011;10617;52.032;5.298;2024-01-30T14:11:11;4.82;;;1.55;;
20914;SDS011;10617;52.032;5.298;2024-01-30T14:15:13;4.45;;;1.50;;
20914;SDS011;10617;52.032;5.298;2024-01-30T14:19:34;4.10;;;1.25;;
20914;SDS011;10617;52.032;5.298;2024-01-30T14:23:37;5.10;;;1.50;;
20914;SDS011;10617;52.032;5.298;2024-01-30T14:27:40;4.50;;;1.42;;
20914;SDS011;10617;52.032;5.298;2024-01-30T14:31:41;4.50;;;1.42;;
20914;SDS011;10617;52.032;5.298;2024-01-30T14:35:43;3.13;;;1.35;;
20914;SDS011;10617;52.032;5.298;2024-01-30T14:44:43;4.78;;;1.40;;
20914;SDS011;10617;52.032;5.298;2024-01-30T14:48:44;7.57;;;1.58;;
20914;SDS011;10617;52.032;5.298;2024-01-30T14:52:46;5.15;;;1.90;;
20914;SDS011;10617;52.032;5.298;2024-01-30T15:01:15;6.25;;;2.50;;
20914;SDS011;10617;52.032;5.298;2024-01-30T15:05:17;4.30;;;1.85;;
20914;SDS011;10617;52.032;5.298;2024-01-30T15:13:55;4.03;;;1.67;;
20914;SDS011;10617;52.032;5.298;2024-01-30T15:17:57;4.95;;;1.90;;
20914;SDS011;10617;52.032;5.298;2024-01-30T15:22:00;5.78;;;2.05;;
20914;SDS011;10617;52.032;5.298;2024-01-30T15:26:01;6.13;;;2.15;;
20914;SDS011;10617;52.032;5.298;2024-01-30T15:30:03;5.95;;;2.45;;
20914;SDS011;10617;52.032;5.298;2024-01-30T15:34:06;6.20;;;2.40;;
20914;SDS011;10617;52.032;5.298;2024-01-30T15:38:08;4.00;;;1.88;;
20914;SDS011;10617;52.032;5.298;2024-01-30T15:42:10;6.72;;;2.42;;
20914;SDS011;10617;52.032;5.298;2024-01-30T15:46:12;5.88;;;2.55;;
20914;SDS011;10617;52.032;5.298;2024-01-30T15:50:13;4.57;;;2.15;;
20914;SDS011;10617;52.032;5.298;2024-01-30T15:54:15;6.03;;;2.60;;
20914;SDS011;10617;52.032;5.298;2024-01-30T15:58:18;5.60;;;2.78;;
20914;SDS011;10617;52.032;5.298;2024-01-30T16:02:20;5.03;;;2.55;;
20914;SDS011;10617;52.032;5.298;2024-01-30T16:11:44;6.50;;;3.35;;
20914;SDS011;10617;52.032;5.298;2024-01-30T16:15:46;6.35;;;2.85;;
20914;SDS011;10617;52.032;5.298;2024-01-30T16:19:48;5.80;;;3.05;;
20914;SDS011;10617;52.032;5.298;2024-01-30T16:23:53;6.18;;;3.35;;
20914;SDS011;10617;52.032;5.298;2024-01-30T16:27:55;6.15;;;3.17;;
20914;SDS011;10617;52.032;5.298;2024-01-30T16:31:57;6.93;;;3.83;;
20914;SDS011;10617;52.032;5.298;2024-01-30T16:35:59;6.85;;;3.78;;
20914;SDS011;10617;52.032;5.298;2024-01-30T16:40:01;6.40;;;3.60;;
20914;SDS011;10617;52.032;5.298;2024-01-30T16:44:04;5.88;;;3.70;;
20914;SDS011;10617;52.032;5.298;2024-01-30T16:53:28;7.20;;;4.40;;
20914;SDS011;10617;52.032;5.298;2024-01-30T16:57:31;6.93;;;4.10;;
20914;SDS011;10617;52.032;5.298;2024-01-30T17:01:36;7.43;;;4.55;;
20914;SDS011;10617;52.032;5.298;2024-01-30T17:05:38;5.88;;;3.53;;
20914;SDS011;10617;52.032;5.298;2024-01-30T17:14:26;5.50;;;3.20;;
20914;SDS011;10617;52.032;5.298;2024-01-30T17:18:32;6.07;;;2.80;;
20914;SDS011;10617;52.032;5.298;2024-01-30T17:22:34;5.70;;;2.88;;
20914;SDS011;10617;52.032;5.298;2024-01-30T17:31:18;5.70;;;2.50;;
20914;SDS011;10617;52.032;5.298;2024-01-30T17:35:20;5.32;;;2.42;;
20914;SDS011;10617;52.032;5.298;2024-01-30T17:39:22;4.82;;;2.50;;
20914;SDS011;10617;52.032;5.298;2024-01-30T17:43:23;5.40;;;2.30;;
20914;SDS011;10617;52.032;5.298;2024-01-30T17:47:25;5.20;;;2.00;;
20914;SDS011;10617;52.032;5.298;2024-01-30T17:51:27;8.07;;;2.20;;
20914;SDS011;10617;52.032;5.298;2024-01-30T17:55:29;4.95;;;1.77;;
20914;SDS011;10617;52.032;5.298;2024-01-30T17:59:31;4.63;;;2.03;;
20914;SDS011;10617;52.032;5.298;2024-01-30T18:03:33;4.03;;;1.30;;
20914;SDS011;10617;52.032;5.298;2024-01-30T18:07:35;3.65;;;1.60;;
20914;SDS011;10617;52.032;5.298;2024-01-30T18:11:39;5.65;;;1.70;;
20914;SDS011;10617;52.032;5.298;2024-01-30T18:15:41;6.47;;;1.70;;
20914;SDS011;10617;52.032;5.298;2024-01-30T18:19:43;6.00;;;1.65;;
20914;SDS011;10617;52.032;5.298;2024-01-30T18:23:45;3.80;;;1.40;;
20914;SDS011;10617;52.032;5.298;2024-01-30T18:27:48;4.55;;;1.33;;
20914;SDS011;10617;52.032;5.298;2024-01-30T18:31:51;8.10;;;1.67;;
20914;SDS011;10617;52.032;5.298;2024-01-30T18:40:14;6.40;;;1.42;;
20914;SDS011;10617;52.032;5.298;2024-01-30T18:44:20;5.60;;;1.90;;
20914;SDS011;10617;52.032;5.298;2024-01-30T18:48:22;4.85;;;1.42;;
20914;SDS011;10617;52.032;5.298;2024-01-30T18:52:23;6.70;;;1.67;;
20914;SDS011;10617;52.032;5.298;2024-01-30T18:56:25;3.90;;;1.50;;
20914;SDS011;10617;52.032;5.298;2024-01-30T19:00:27;6.97;;;1.42;;
20914;SDS011;10617;52.032;5.298;2024-01-30T19:04:29;6.60;;;1.60;;
20914;SDS011;10617;52.032;5.298;2024-01-30T19:08:31;7.82;;;1.80;;
20914;SDS011;10617;52.032;5.298;2024-01-30T19:12:33;5.20;;;1.20;;
20914;SDS011;10617;52.032;5.298;2024-01-30T19:16:37;5.22;;;1.25;;
20914;SDS011;10617;52.032;5.298;2024-01-30T19:20:42;6.85;;;1.38;;
20914;SDS011;10617;52.032;5.298;2024-01-30T19:24:44;4.53;;;1.20;;
20914;SDS011;10617;52.032;5.298;2024-01-30T19:28:46;4.85;;;1.50;;
20914;SDS011;10617;52.032;5.298;2024-01-30T19:32:50;4.72;;;1.23;;
20914;SDS011;10617;52.032;5.298;2024-01-30T19:36:52;7.90;;;1.35;;
20914;SDS011;10617;52.032;5.298;2024-01-30T19:40:54;10.50;;;1.40;;
20914;SDS011;10617;52.032;5.298;2024-01-30T19:44:56;5.82;;;1.30;;
20914;SDS011;10617;52.032;5.298;2024-01-30T19:48:58;5.90;;;1.13;;
20914;SDS011;10617;52.032;5.298;2024-01-30T19:53:00;6.43;;;1.20;;
20914;SDS011;10617;52.032;5.298;2024-01-30T19:57:02;6.32;;;1.30;;
20914;SDS011;10617;52.032;5.298;2024-01-30T20:01:04;7.65;;;1.63;;
20914;SDS011;10617;52.032;5.298;2024-01-30T20:05:07;6.47;;;1.55;;
20914;SDS011;10617;52.032;5.298;2024-01-30T20:09:10;4.82;;;1.23;;
20914;SDS011;10617;52.032;5.298;2024-01-30T20:13:12;7.70;;;1.60;;
20914;SDS011;10617;52.032;5.298;2024-01-30T20:17:14;9.70;;;1.25;;
20914;SDS011;10617;52.032;5.298;2024-01-30T20:21:16;6.72;;;1.40;;
20914;SDS011;10617;52.032;5.298;2024-01-30T20:25:18;8.07;;;1.27;;
20914;SDS011;10617;52.032;5.298;2024-01-30T20:29:21;5.15;;;1.27;;
20914;SDS011;10617;52.032;5.298;2024-01-30T20:33:22;6.43;;;1.40;;
20914;SDS011;10617;52.032;5.298;2024-01-30T20:37:25;5.65;;;1.20;;
20914;SDS011;10617;52.032;5.298;2024-01-30T20:41:27;4.05;;;1.48;;
20914;SDS011;10617;52.032;5.298;2024-01-30T20:45:29;9.73;;;1.30;;
20914;SDS011;10617;52.032;5.298;2024-01-30T20:49:32;4.32;;;1.30;;
20914;SDS011;10617;52.032;5.298;2024-01-30T20:53:34;4.10;;;0.93;;
20914;SDS011;10617;52.032;5.298;2024-01-30T20:57:36;8.57;;;1.27;;
20914;SDS011;10617;52.032;5.298;2024-01-30T21:01:37;7.25;;;1.23;;
20914;SDS011;10617;52.032;5.298;2024-01-30T21:05:40;5.18;;;1.17;;
20914;SDS011;10617;52.032;5.298;2024-01-30T21:09:43;3.75;;;1.00;;
20914;SDS011;10617;52.032;5.298;2024-01-30T21:13:45;4.22;;;1.08;;
20914;SDS011;10617;52.032;5.298;2024-01-30T21:17:46;6.13;;;1.50;;
20914;SDS011;10617;52.032;5.298;2024-01-30T21:21:48;4.47;;;1.10;;
20914;SDS011;10617;52.032;5.298;2024-01-30T21:25:50;4.68;;;1.10;;
20914;SDS011;10617;52.032;5.298;2024-01-30T21:29:52;4.47;;;1.15;;
20914;SDS011;10617;52.032;5.298;2024-01-30T21:33:54;4.25;;;1.10;;
20914;SDS011;10617;52.032;5.298;2024-01-30T21:37:55;3.50;;;1.23;;
20914;SDS011;10617;52.032;5.298;2024-01-30T21:41:58;4.75;;;0.93;;
20914;SDS011;10617;52.032;5.298;2024-01-30T21:46:00;4.13;;;1.08;;
20914;SDS011;10617;52.032;5.298;2024-01-30T21:50:01;8.25;;;1.05;;
20914;SDS011;10617;52.032;5.298;2024-01-30T21:54:04;6.13;;;1.30;;
20914;SDS011;10617;52.032;5.298;2024-01-30T21:58:06;4.28;;;1.00;;
20914;SDS011;10617;52.032;5.298;2024-01-30T22:02:08;6.57;;;1.20;;
20914;SDS011;10617;52.032;5.298;2024-01-30T22:06:10;4.88;;;1.08;;
20914;SDS011;10617;52.032;5.298;2024-01-30T22:10:12;4.20;;;1.05;;
20914;SDS011;10617;52.032;5.298;2024-01-30T22:14:17;4.45;;;1.02;;
20914;SDS011;10617;52.032;5.298;2024-01-30T22:18:19;6.25;;;1.00;;
20914;SDS011;10617;52.032;5.298;2024-01-30T22:22:21;3.03;;;1.00;;
20914;SDS011;10617;52.032;5.298;2024-01-30T22:26:23;5.93;;;1.00;;
20914;SDS011;10617;52.032;5.298;2024-01-30T22:30:24;5.00;;;1.15;;
20914;SDS011;10617;52.032;5.298;2024-01-30T22:34:26;3.40;;;0.93;;
20914;SDS011;10617;52.032;5.298;2024-01-30T22:38:29;4.10;;;1.33;;
20914;SDS011;10617;52.032;5.298;2024-01-30T22:42:31;4.05;;;0.82;;
20914;SDS011;10617;52.032;5.298;2024-01-30T22:46:33;8.15;;;1.10;;
20914;SDS011;10617;52.032;5.298;2024-01-30T22:50:35;2.65;;;0.95;;
20914;SDS011;10617;52.032;5.298;2024-01-30T22:54:37;4.43;;;1.10;;
20914;SDS011;10617;52.032;5.298;2024-01-30T22:58:38;3.42;;;1.00;;
20914;SDS011;10617;52.032;5.298;2024-01-30T23:02:41;3.40;;;0.77;;
20914;SDS011;10617;52.032;5.298;2024-01-30T23:06:43;5.13;;;1.10;;
20914;SDS011;10617;52.032;5.298;2024-01-30T23:10:45;4.28;;;1.10;;
20914;SDS011;10617;52.032;5.298;2024-01-30T23:14:47;3.63;;;1.20;;
20914;SDS011;10617;52.032;5.298;2024-01-30T23:18:50;4.47;;;0.90;;
20914;SDS011;10617;52.032;5.298;2024-01-30T23:22:52;4.78;;;1.00;;
20914;SDS011;10617;52.032;5.298;2024-01-30T23:26:54;2.95;;;0.80;;
20914;SDS011;10617;52.032;5.298;2024-01-30T23:30:56;5.45;;;1.00;;
20914;SDS011;10617;52.032;5.298;2024-01-30T23:34:59;3.55;;;1.10;;
20914;SDS011;10617;52.032;5.298;2024-01-30T23:39:02;6.40;;;1.08;;
20914;SDS011;10617;52.032;5.298;2024-01-30T23:43:04;3.42;;;1.00;;
20914;SDS011;10617;52.032;5.298;2024-01-30T23:47:06;5.55;;;1.00;;
20914;SDS011;10617;52.032;5.298;2024-01-30T23:51:10;3.35;;;1.10;;
20914;SDS011;10617;52.032;5.298;2024-01-30T23:55:12;4.20;;;1.15;;
20914;SDS011;10617;52.032;5.298;2024-01-30T23:59:14;4.18;;;0.90;;
